Time;durP1;ratioP1;P1;durP2;ratioP2;P2;SDS_P1;SDS_P2;PMS_P1;PMS_P2;Temp;Humidity;BMP_temperature;BMP_pressure;BME280_temperature;BME280_humidity;BME280_pressure;Samples;Min_cycle;Max_cycle;Signal;HPM_P1;HPM_P2
2022/08/29 06:30:02;;;;;;;;;;;17.20;89.10;;;;;;6148926;23;19994;-68
2022/08/29 06:32:28;;;;;;;;;;;17.20;89.40;;;;;;6149087;23;19917;-69
2022/08/29 06:34:55;;;;;;;;;;;17.20;89.80;;;;;;6123465;23;19915;-69
2022/08/29 06:37:21;;;;;;;;;;;17.20;89.70;;;;;;6123336;23;19909;-69
2022/08/29 06:39:48;;;;;;;;;;;17.10;90.00;;;;;;6149413;23;19928;-69
2022/08/29 06:42:17;;;;;;;;;;;17.10;89.90;;;;;;6149304;23;19908;-69
2022/08/29 06:44:44;;;;;;;;;;;17.10;90.20;;;;;;6148812;23;19913;-69
2022/08/29 06:47:11;;;;;;;;;;;17.10;90.20;;;;;;6149918;23;20265;-70
2022/08/29 06:49:37;;;;;;;;;;;17.10;90.10;;;;;;6149415;23;19909;-70
2022/08/29 06:52:04;;;;;;;;;;;17.10;90.10;;;;;;6149639;23;19924;-69
2022/08/29 06:54:30;;;;;;;;;;;17.10;90.10;;;;;;6150146;23;19985;-69
2022/08/29 06:56:58;;;;;;;;;;;17.10;90.10;;;;;;6150861;23;20311;-69
2022/08/29 06:59:25;;;;;;;;;;;17.10;90.20;;;;;;6122947;23;19915;-69
2022/08/29 07:01:53;;;;;;;;;;;17.10;90.20;;;;;;6125065;23;20252;-69
2022/08/29 07:04:20;;;;;;;;;;;17.10;90.30;;;;;;6150988;23;19972;-69
2022/08/29 07:06:46;;;;;;;;;;;17.10;90.50;;;;;;6150997;23;19975;-70
2022/08/29 07:09:13;;;;;;;;;;;17.10;90.70;;;;;;6150455;23;20238;-69
2022/08/29 07:11:40;;;;;;;;;;;17.00;90.90;;;;;;6151011;23;19904;-69
2022/08/29 07:14:07;;;;;;;;;;;17.00;91.20;;;;;;6150311;23;19936;-70
2022/08/29 07:16:34;;;;;;;;;;;16.90;91.40;;;;;;6150818;23;19936;-69
2022/08/29 07:19:01;;;;;;;;;;;16.90;91.50;;;;;;6150670;23;19908;-68
2022/08/29 07:21:28;;;;;;;;;;;16.90;91.90;;;;;;6125229;23;19915;-69
2022/08/29 07:23:54;;;;;;;;;;;16.80;91.90;;;;;;6124757;23;20214;-69
2022/08/29 07:26:22;;;;;;;;;;;16.80;92.10;;;;;;6150320;23;19912;-70
2022/08/29 07:28:49;;;;;;;;;;;16.80;92.00;;;;;;5979804;23;4006841;-70
2022/08/29 07:31:16;;;;;;;;;;;16.80;92.30;;;;;;6126265;23;20332;-69
2022/08/29 07:33:42;;;;;;;;;;;16.80;92.30;;;;;;6152209;23;20339;-70
2022/08/29 07:36:09;;;;;;;;;;;16.80;92.50;;;;;;6126664;23;19911;-69
2022/08/29 07:38:36;;;;;;;;;;;16.70;92.50;;;;;;6151662;23;19908;-69
2022/08/29 07:41:06;;;;;;;;;;;16.80;92.70;;;;;;6152305;23;20303;-69
2022/08/29 07:43:33;;;;;;;;;;;16.80;92.80;;;;;;6125918;23;19904;-69
2022/08/29 07:46:05;;;;;;;;;;;16.70;92.70;;;;;;6152350;23;19917;-69
2022/08/29 07:48:31;;;;;;;;;;;16.80;92.80;;;;;;6151786;23;19912;-69
2022/08/29 07:50:58;;;;;;;;;;;16.70;92.80;;;;;;6150589;23;19984;-69
2022/08/29 07:53:25;;;;;;;;;;;16.70;92.90;;;;;;6151124;23;19908;-69
2022/08/29 07:55:51;;;;;;;;;;;16.70;93.10;;;;;;6150766;23;20241;-69
2022/08/29 07:58:18;;;;;;;;;;;16.80;93.20;;;;;;6149195;23;19915;-69
2022/08/29 08:00:45;;;;;;;;;;;16.80;93.10;;;;;;6151771;23;19932;-69
2022/08/29 08:03:13;;;;;;;;;;;16.80;93.20;;;;;;6151229;23;19915;-69
2022/08/29 08:05:39;;;;;;;;;;;16.80;93.20;;;;;;6150804;23;20220;-68
2022/08/29 08:08:08;;;;;;;;;;;16.80;93.20;;;;;;6151600;23;19955;-69
2022/08/29 08:10:37;;;;;;;;;;;16.80;93.10;;;;;;6150398;23;20331;-69
2022/08/29 08:13:04;;;;;;;;;;;16.80;93.00;;;;;;6123049;23;19912;-68
2022/08/29 08:15:30;;;;;;;;;;;16.80;92.90;;;;;;6149445;23;20324;-68
2022/08/29 08:17:57;;;;;;;;;;;16.80;92.90;;;;;;6124031;23;19912;-69
2022/08/29 08:20:23;;;;;;;;;;;16.80;93.00;;;;;;6124669;23;19924;-69
2022/08/29 08:22:50;;;;;;;;;;;16.80;93.00;;;;;;6149139;23;19921;-68
2022/08/29 08:25:17;;;;;;;;;;;16.80;93.00;;;;;;6150342;23;19924;-68
2022/08/29 08:27:43;;;;;;;;;;;16.80;92.90;;;;;;6150272;23;19915;-68
2022/08/29 08:30:10;;;;;;;;;;;16.80;92.90;;;;;;6149796;23;19920;-69
2022/08/29 08:32:37;;;;;;;;;;;16.80;92.70;;;;;;6149004;23;19912;-68
2022/08/29 08:35:03;;;;;;;;;;;16.80;92.70;;;;;;6149944;23;19908;-68
2022/08/29 08:37:30;;;;;;;;;;;16.70;92.70;;;;;;6150310;23;19964;-69
2022/08/29 08:39:57;;;;;;;;;;;16.70;92.60;;;;;;6150843;23;19908;-68
2022/08/29 08:42:41;;;;;;;;;;;16.80;92.60;;;;;;6150607;23;20268;-70
2022/08/29 08:45:13;;;;;;;;;;;16.70;92.60;;;;;;6148842;23;19924;-68
2022/08/29 08:47:40;;;;;;;;;;;16.70;92.50;;;;;;6124343;23;20252;-68
2022/08/29 08:50:10;;;;;;;;;;;16.70;92.40;;;;;;6150225;23;20321;-68
2022/08/29 08:52:42;;;;;;;;;;;16.70;92.40;;;;;;6125212;23;19908;-68
2022/08/29 08:55:11;;;;;;;;;;;16.70;92.20;;;;;;6124640;23;19915;-69
2022/08/29 08:57:39;;;;;;;;;;;16.70;92.10;;;;;;6124561;23;19909;-68
2022/08/29 09:00:09;;;;;;;;;;;16.70;92.00;;;;;;6148556;23;19998;-69
2022/08/29 09:02:41;;;;;;;;;;;16.70;91.90;;;;;;6150579;23;19975;-68
2022/08/29 09:05:16;;;;;;;;;;;16.70;91.80;;;;;;6151340;23;19912;-69
2022/08/29 09:07:42;;;;;;;;;;;16.70;91.80;;;;;;6150123;23;20219;-68
2022/08/29 09:10:12;;;;;;;;;;;16.70;91.70;;;;;;6150987;23;19908;-68
2022/08/29 09:12:50;;;;;;;;;;;16.70;91.60;;;;;;6124415;23;19917;-69
2022/08/29 09:15:17;;;;;;;;;;;16.70;91.60;;;;;;6124934;23;20205;-68
2022/08/29 09:17:51;;;;;;;;;;;16.70;91.60;;;;;;6124357;23;19904;-69
2022/08/29 09:20:28;;;;;;;;;;;16.70;91.60;;;;;;6150660;23;19909;-69
2022/08/29 09:22:58;;;;;;;;;;;16.70;91.40;;;;;;6150782;23;19909;-69
2022/08/29 09:25:24;;;;;;;;;;;16.70;91.20;;;;;;6148941;23;19937;-68
2022/08/29 09:27:51;;;;;;;;;;;16.70;91.20;;;;;;6149857;23;19987;-68
2022/08/29 09:30:23;;;;;;;;;;;16.70;91.10;;;;;;6149936;23;20344;-69
2022/08/29 09:33:01;;;;;;;;;;;16.70;91.20;;;;;;6150354;23;20324;-69
2022/08/29 09:35:36;;;;;;;;;;;16.70;91.20;;;;;;6150642;23;20379;-69
2022/08/29 09:38:05;;;;;;;;;;;16.70;91.10;;;;;;6149788;23;19967;-68
2022/08/29 09:40:50;;;;;;;;;;;16.60;91.10;;;;;;6151109;23;20284;-68
2022/08/29 09:43:26;;;;;;;;;;;16.70;91.10;;;;;;6146817;23;19923;-68
2022/08/29 09:46:12;;;;;;;;;;;16.70;91.00;;;;;;6147827;23;19920;-67
2022/08/29 11:05:26;;;;;;;;;;;16.60;89.30;;;;;;6147965;23;19928;-68
2022/08/29 11:07:53;;;;;;;;;;;16.70;89.20;;;;;;6126295;23;19924;-69
2022/08/29 11:10:24;;;;;;;;;;;16.60;89.20;;;;;;6152380;23;20395;-69
2022/08/29 11:12:53;;;;;;;;;;;16.60;89.30;;;;;;6125843;23;19919;-69
2022/08/29 11:15:22;;;;;;;;;;;16.70;89.20;;;;;;6151423;23;19908;-69
2022/08/29 11:18:07;;;;;;;;;;;16.60;89.20;;;;;;6126239;23;19909;-69
2022/08/29 11:20:35;;;;;;;;;;;16.60;89.20;;;;;;6151960;23;19904;-69
2022/08/29 11:23:05;;;;;;;;;;;16.60;89.10;;;;;;6124947;23;19935;-68
2022/08/29 11:25:32;;;;;;;;;;;16.70;89.00;;;;;;6151384;23;19913;-69
2022/08/29 11:28:17;;;;;;;;;;;16.60;89.00;;;;;;6151620;23;20317;-69
2022/08/29 11:30:47;;;;;;;;;;;16.60;89.00;;;;;;6152026;23;19912;-68
2022/08/29 11:33:14;;;;;;;;;;;16.60;88.80;;;;;;6151860;23;19916;-68
2022/08/29 11:36:00;;;;;;;;;;;16.60;88.70;;;;;;6151732;23;19904;-68
2022/08/29 11:38:50;;;;;;;;;;;16.60;88.80;;;;;;6149851;23;19915;-68
2022/08/29 11:41:21;;;;;;;;;;;16.60;88.70;;;;;;6135273;23;19905;-68
2022/08/29 11:43:49;;;;;;;;;;;16.60;88.60;;;;;;6125274;23;19913;-69
2022/08/29 11:46:16;;;;;;;;;;;16.60;88.50;;;;;;6151383;23;19913;-68
2022/08/29 11:48:46;;;;;;;;;;;16.50;88.50;;;;;;6125013;23;20016;-68
2022/08/29 11:51:32;;;;;;;;;;;16.60;88.20;;;;;;6152199;23;19904;-68
2022/08/29 11:54:17;;;;;;;;;;;16.50;88.00;;;;;;6151665;23;19968;-68
2022/08/29 11:56:44;;;;;;;;;;;16.60;88.00;;;;;;6124959;23;20702;-69
2022/08/29 11:59:10;;;;;;;;;;;16.50;88.00;;;;;;6148586;23;19915;-68
2022/08/29 12:01:37;;;;;;;;;;;16.50;87.80;;;;;;6124998;23;20264;-68
2022/08/29 12:06:41;;;;;;;;;;;16.50;87.90;;;;;;6149939;23;19924;-68
2022/08/29 12:09:11;;;;;;;;;;;16.50;87.90;;;;;;6151186;23;19920;-68
2022/08/29 12:11:56;;;;;;;;;;;16.40;87.70;;;;;;6151809;23;19991;-68
2022/08/29 12:14:33;;;;;;;;;;;16.40;87.70;;;;;;6150848;23;19911;-69
2022/08/29 12:17:02;;;;;;;;;;;16.40;87.70;;;;;;6150068;23;20000;-71
2022/08/29 12:19:46;;;;;;;;;;;16.40;87.40;;;;;;6150545;23;19908;-70
2022/08/29 12:22:32;;;;;;;;;;;16.30;87.10;;;;;;6151028;23;19905;-69
2022/08/29 12:25:00;;;;;;;;;;;16.40;87.00;;;;;;6089732;23;19917;-69
2022/08/29 12:27:45;;;;;;;;;;;16.40;86.80;;;;;;6127461;23;19905;-68
2022/08/29 12:30:12;;;;;;;;;;;16.40;86.90;;;;;;6127620;23;20320;-67
2022/08/29 12:32:50;;;;;;;;;;;16.40;86.80;;;;;;6153734;23;19916;-68
2022/08/29 12:35:35;;;;;;;;;;;16.40;86.40;;;;;;6128403;23;19912;-68
2022/08/29 12:38:12;;;;;;;;;;;16.40;86.10;;;;;;6152156;23;19959;-68
2022/08/29 12:40:45;;;;;;;;;;;16.40;86.10;;;;;;6126072;23;19909;-68
2022/08/29 12:43:24;;;;;;;;;;;16.30;86.10;;;;;;6153301;23;19941;-68
2022/08/29 12:45:51;;;;;;;;;;;16.40;85.90;;;;;;6128656;23;19935;-68
2022/08/29 12:48:23;;;;;;;;;;;16.30;85.70;;;;;;6153784;23;19904;-68
2022/08/29 12:50:49;;;;;;;;;;;16.30;85.70;;;;;;6154763;23;20292;-68
2022/08/29 12:53:32;;;;;;;;;;;16.30;85.60;;;;;;6153546;23;20296;-68
2022/08/29 12:55:59;;;;;;;;;;;16.30;85.30;;;;;;6128498;23;19915;-67
2022/08/29 12:58:44;;;;;;;;;;;16.30;85.10;;;;;;6152631;23;19916;-68
2022/08/29 13:01:23;;;;;;;;;;;16.30;84.90;;;;;;6155070;23;20271;-68
2022/08/29 13:03:59;;;;;;;;;;;16.30;84.70;;;;;;6153687;23;19911;-68
2022/08/29 13:18:15;;;;;;;;;;;16.30;83.60;;;;;;6149441;23;19939;-68
2022/08/29 13:20:44;;;;;;;;;;;16.30;83.60;;;;;;6154213;23;19919;-68
2022/08/29 13:23:11;;;;;;;;;;;16.30;83.50;;;;;;6154121;23;19911;-68
2022/08/29 13:25:45;;;;;;;;;;;16.30;83.20;;;;;;6154120;23;19919;-68
2022/08/29 13:28:49;;;;;;;;;;;16.30;83.20;;;;;;6154087;23;19905;-68
2022/08/29 13:31:17;;;;;;;;;;;16.30;82.90;;;;;;6034450;23;19985;-68
2022/08/29 13:33:50;;;;;;;;;;;16.30;83.10;;;;;;6034924;23;19910;-68
2022/08/29 13:36:36;;;;;;;;;;;16.30;82.80;;;;;;6097340;23;19959;-68
2022/08/29 13:39:23;;;;;;;;;;;16.30;83.00;;;;;;6154413;23;19932;-68
2022/08/29 13:42:02;;;;;;;;;;;16.30;83.00;;;;;;6153978;23;19905;-68
2022/08/29 13:44:35;;;;;;;;;;;16.30;82.80;;;;;;6153495;23;19947;-69
2022/08/29 13:47:03;;;;;;;;;;;16.30;82.50;;;;;;6102837;23;19904;-68
2022/08/29 13:49:30;;;;;;;;;;;16.30;82.90;;;;;;6128031;23;19905;-68
2022/08/29 13:51:57;;;;;;;;;;;16.30;82.90;;;;;;6128114;23;20333;-68
2022/08/29 13:54:23;;;;;;;;;;;16.30;83.10;;;;;;6153797;23;19909;-68
2022/08/29 13:56:52;;;;;;;;;;;16.20;83.30;;;;;;6128097;23;19905;-68
2022/08/29 13:59:20;;;;;;;;;;;16.20;82.90;;;;;;6102682;23;19908;-68
2022/08/29 14:01:46;;;;;;;;;;;16.20;82.80;;;;;;6152950;23;20382;-68
2022/08/29 14:04:13;;;;;;;;;;;16.20;82.70;;;;;;6154503;23;20232;-68
2022/08/29 14:06:39;;;;;;;;;;;16.20;82.30;;;;;;6156769;23;19920;-68
2022/08/29 14:09:06;;;;;;;;;;;16.20;82.30;;;;;;6155856;23;19936;-68
2022/08/29 14:11:33;;;;;;;;;;;16.30;82.30;;;;;;6156230;23;20332;-68
2022/08/29 14:13:59;;;;;;;;;;;16.30;81.70;;;;;;6152399;23;20597;-68
2022/08/29 14:16:26;;;;;;;;;;;16.20;81.90;;;;;;6149115;23;19967;-68
2022/08/29 14:18:53;;;;;;;;;;;16.20;82.10;;;;;;6153288;23;19920;-68
2022/08/29 14:21:20;;;;;;;;;;;16.20;81.90;;;;;;6154316;23;19963;-68
2022/08/29 14:23:47;;;;;;;;;;;16.20;81.90;;;;;;6153477;23;20320;-68
2022/08/29 14:26:14;;;;;;;;;;;16.20;81.90;;;;;;6153383;23;20359;-68
2022/08/29 14:28:42;;;;;;;;;;;16.20;82.20;;;;;;6153363;23;19909;-68
2022/08/29 14:31:08;;;;;;;;;;;16.20;81.80;;;;;;6153397;23;20350;-68
2022/08/29 14:33:35;;;;;;;;;;;16.20;81.70;;;;;;6152686;23;19908;-68
2022/08/29 14:36:02;;;;;;;;;;;16.20;81.50;;;;;;6153674;23;20344;-68
2022/08/29 14:38:28;;;;;;;;;;;16.20;80.90;;;;;;6153517;23;19908;-68
2022/08/29 14:40:55;;;;;;;;;;;16.20;80.90;;;;;;6154492;23;19908;-68
2022/08/29 14:43:22;;;;;;;;;;;16.20;80.70;;;;;;6153972;23;19912;-68
2022/08/29 14:45:50;;;;;;;;;;;16.20;80.40;;;;;;6125623;23;19917;-68
2022/08/29 14:48:16;;;;;;;;;;;16.20;80.50;;;;;;6153802;23;19908;-68
2022/08/29 14:50:43;;;;;;;;;;;16.20;80.60;;;;;;6153667;23;19932;-67
2022/08/29 14:53:10;;;;;;;;;;;16.20;80.50;;;;;;6153350;23;19909;-68
2022/08/29 14:55:37;;;;;;;;;;;16.20;80.40;;;;;;6153507;23;19909;-68
2022/08/29 14:58:03;;;;;;;;;;;16.20;80.40;;;;;;6153884;23;19967;-68
2022/08/29 15:00:32;;;;;;;;;;;16.20;80.30;;;;;;6153400;23;19936;-68
2022/08/29 15:03:00;;;;;;;;;;;16.20;80.10;;;;;;6153083;23;19984;-68
2022/08/29 15:05:26;;;;;;;;;;;16.20;80.40;;;;;;6153075;23;19916;-68
2022/08/29 15:07:53;;;;;;;;;;;16.20;80.50;;;;;;6153843;23;19932;-68
2022/08/29 15:10:20;;;;;;;;;;;16.20;80.50;;;;;;6154135;23;19931;-68
2022/08/29 15:12:47;;;;;;;;;;;16.20;80.60;;;;;;6126495;23;19976;-68
2022/08/29 15:15:13;;;;;;;;;;;16.20;80.70;;;;;;6148581;23;20558;-68
2022/08/29 15:17:42;;;;;;;;;;;16.10;81.10;;;;;;6151532;23;19908;-68
2022/08/29 15:20:09;;;;;;;;;;;16.10;80.90;;;;;;6153095;23;20282;-68
2022/08/29 15:22:35;;;;;;;;;;;16.10;81.10;;;;;;6152998;23;20295;-68
2022/08/29 15:25:02;;;;;;;;;;;16.10;81.50;;;;;;6153570;23;19912;-68
2022/08/29 15:27:29;;;;;;;;;;;16.10;82.60;;;;;;6126881;23;19912;-68
2022/08/29 15:29:56;;;;;;;;;;;16.10;83.30;;;;;;6126525;23;19939;-68
2022/08/29 15:32:22;;;;;;;;;;;16.10;83.90;;;;;;6152925;23;19908;-68
2022/08/29 15:34:49;;;;;;;;;;;16.10;84.90;;;;;;6152826;23;20384;-68
2022/08/29 15:37:16;;;;;;;;;;;16.10;86.50;;;;;;6152851;23;19913;-68
2022/08/29 15:39:42;;;;;;;;;;;16.20;86.90;;;;;;6153560;23;20004;-68
2022/08/29 15:42:12;;;;;;;;;;;16.10;87.40;;;;;;6152670;23;19945;-68
2022/08/29 15:44:39;;;;;;;;;;;16.10;87.40;;;;;;6152808;23;19916;-68
2022/08/29 15:47:05;;;;;;;;;;;16.10;87.60;;;;;;6150987;23;19912;-68
2022/08/29 15:49:32;;;;;;;;;;;16.10;87.70;;;;;;6126628;23;20284;-68
2022/08/29 15:51:59;;;;;;;;;;;16.00;87.90;;;;;;6152890;23;19908;-68
2022/08/29 15:54:25;;;;;;;;;;;16.00;88.00;;;;;;6126950;23;19927;-69
2022/08/29 15:56:52;;;;;;;;;;;16.00;88.10;;;;;;6126937;23;19930;-69
2022/08/29 15:59:19;;;;;;;;;;;15.90;88.10;;;;;;6153063;23;19956;-68
2022/08/29 16:01:46;;;;;;;;;;;15.90;88.20;;;;;;6126648;23;19909;-69
2022/08/29 16:04:13;;;;;;;;;;;15.90;88.20;;;;;;6152084;23;19904;-69
2022/08/29 16:06:40;;;;;;;;;;;15.90;88.30;;;;;;6126618;23;19911;-68
2022/08/29 16:09:07;;;;;;;;;;;15.90;88.30;;;;;;6152134;23;19984;-69
2022/08/29 16:11:34;;;;;;;;;;;15.80;88.50;;;;;;6152273;23;19919;-68
2022/08/29 16:14:01;;;;;;;;;;;15.80;88.30;;;;;;6152851;23;19940;-68
2022/08/29 16:16:28;;;;;;;;;;;15.80;88.30;;;;;;6151839;23;19912;-68
2022/08/29 16:18:55;;;;;;;;;;;15.80;88.30;;;;;;6152527;23;19938;-69
2022/08/29 16:21:25;;;;;;;;;;;15.80;88.00;;;;;;6152536;23;19908;-69
2022/08/29 16:23:52;;;;;;;;;;;15.80;87.90;;;;;;6152991;23;19905;-69
2022/08/29 16:26:18;;;;;;;;;;;15.80;87.90;;;;;;6152117;23;19916;-68
2022/08/29 16:28:46;;;;;;;;;;;15.70;87.80;;;;;;6152779;23;19909;-68
2022/08/29 16:31:12;;;;;;;;;;;15.70;87.90;;;;;;6151697;23;19916;-68
2022/08/29 16:33:39;;;;;;;;;;;15.70;87.80;;;;;;6151929;23;19916;-68
2022/08/29 16:36:06;;;;;;;;;;;15.70;88.00;;;;;;6152185;23;19908;-69
2022/08/29 16:38:35;;;;;;;;;;;15.60;88.00;;;;;;6152240;23;19915;-69
2022/08/29 16:41:08;;;;;;;;;;;15.60;87.70;;;;;;6152234;23;20330;-68
2022/08/29 16:43:37;;;;;;;;;;;15.60;87.80;;;;;;6152436;23;19932;-69
2022/08/29 16:46:04;;;;;;;;;;;15.50;87.70;;;;;;6125719;23;19921;-68
2022/08/29 16:48:31;;;;;;;;;;;15.50;87.70;;;;;;6153192;23;19916;-68
2022/08/29 16:50:57;;;;;;;;;;;15.50;87.80;;;;;;6151959;23;19947;-68
2022/08/29 16:53:24;;;;;;;;;;;15.50;87.80;;;;;;6151445;23;19916;-68
2022/08/29 16:55:50;;;;;;;;;;;15.50;87.80;;;;;;6152045;23;19967;-69
2022/08/29 17:01:01;;;;;;;;;;;15.40;87.60;;;;;;6150857;23;20252;-69
2022/08/29 17:03:28;;;;;;;;;;;15.30;87.60;;;;;;6125609;23;19908;-69
2022/08/29 17:05:55;;;;;;;;;;;15.30;87.80;;;;;;6151538;23;19921;-68
2022/08/29 17:18:06;;;;;;;;;;;15.30;87.90;;;;;;6151779;23;20247;-69
2022/08/29 17:20:33;;;;;;;;;;;15.20;87.90;;;;;;6152206;23;19909;-68
2022/08/29 17:23:00;;;;;;;;;;;15.20;88.00;;;;;;6152207;23;19958;-68
2022/08/29 17:25:27;;;;;;;;;;;15.20;88.10;;;;;;6152136;23;19944;-69
2022/08/29 17:27:53;;;;;;;;;;;15.20;88.00;;;;;;6152408;23;19944;-68
2022/08/29 17:30:20;;;;;;;;;;;15.20;88.10;;;;;;6151942;23;19912;-68
2022/08/29 17:32:46;;;;;;;;;;;15.20;88.10;;;;;;6152407;23;19913;-68
2022/08/29 17:35:14;;;;;;;;;;;15.20;88.20;;;;;;6151987;23;20383;-68
2022/08/29 17:37:40;;;;;;;;;;;15.10;88.40;;;;;;6101121;23;19909;-68
2022/08/29 17:40:08;;;;;;;;;;;15.10;88.60;;;;;;6152144;23;19914;-69
2022/08/29 17:42:35;;;;;;;;;;;15.10;88.50;;;;;;6151774;23;19983;-68
2022/08/29 17:45:02;;;;;;;;;;;15.00;88.30;;;;;;6151238;23;20616;-69
2022/08/29 17:47:29;;;;;;;;;;;15.00;88.60;;;;;;6150452;23;19916;-68
2022/08/29 17:49:55;;;;;;;;;;;15.00;88.70;;;;;;6151726;23;19913;-68
2022/08/29 17:52:22;;;;;;;;;;;14.90;88.70;;;;;;6152047;23;19912;-68
2022/08/29 17:54:49;;;;;;;;;;;14.90;88.60;;;;;;6152179;23;19936;-68
2022/08/29 17:57:16;;;;;;;;;;;14.80;88.50;;;;;;6126467;23;20300;-69
2022/08/29 17:59:43;;;;;;;;;;;14.80;88.70;;;;;;6152047;23;20209;-69
2022/08/29 18:02:09;;;;;;;;;;;14.90;88.60;;;;;;6151079;23;19904;-69
2022/08/29 18:04:36;;;;;;;;;;;14.90;88.60;;;;;;6151567;23;19951;-68
2022/08/29 18:07:02;;;;;;;;;;;14.90;88.20;;;;;;6151798;23;19955;-68
2022/08/29 18:09:29;;;;;;;;;;;15.00;88.30;;;;;;6126123;23;19974;-69
2022/08/29 18:11:59;;;;;;;;;;;14.90;88.00;;;;;;6151343;23;19928;-68
2022/08/29 18:14:25;;;;;;;;;;;15.00;88.00;;;;;;6126380;23;20240;-69
2022/08/29 18:16:52;;;;;;;;;;;15.00;87.80;;;;;;6150192;23;19983;-68
2022/08/29 18:19:20;;;;;;;;;;;15.00;87.60;;;;;;6125874;23;19917;-68
2022/08/29 18:21:47;;;;;;;;;;;15.10;87.70;;;;;;6151178;23;19908;-68
2022/08/29 18:24:14;;;;;;;;;;;15.00;87.80;;;;;;6151248;23;19936;-68
2022/08/29 18:26:41;;;;;;;;;;;15.00;87.60;;;;;;6151408;23;19951;-68
2022/08/29 18:29:08;;;;;;;;;;;15.00;87.50;;;;;;6151393;23;19951;-68
2022/08/29 18:31:34;;;;;;;;;;;15.10;87.40;;;;;;6152119;23;19936;-68
2022/08/29 18:34:02;;;;;;;;;;;15.10;86.90;;;;;;6151909;23;20280;-68
2022/08/29 18:36:29;;;;;;;;;;;15.10;86.70;;;;;;6151538;23;19909;-68
2022/08/29 18:38:55;;;;;;;;;;;15.10;86.90;;;;;;6125929;23;20263;-69
2022/08/29 18:41:22;;;;;;;;;;;15.00;87.10;;;;;;6151583;23;19940;-68
2022/08/29 18:43:50;;;;;;;;;;;15.00;86.70;;;;;;6151901;23;19912;-69
2022/08/29 18:46:17;;;;;;;;;;;15.00;86.60;;;;;;6124268;23;19916;-69
2022/08/29 18:48:44;;;;;;;;;;;15.00;86.50;;;;;;6125705;23;20320;-69
2022/08/29 18:51:11;;;;;;;;;;;15.00;86.70;;;;;;6126585;23;19955;-68
2022/08/29 18:53:38;;;;;;;;;;;15.00;86.40;;;;;;6154012;23;19904;-68
2022/08/29 18:56:05;;;;;;;;;;;15.00;86.10;;;;;;6153796;23;20303;-68
2022/08/29 18:58:32;;;;;;;;;;;15.00;85.80;;;;;;6153104;23;19971;-69
2022/08/29 19:00:58;;;;;;;;;;;15.10;85.80;;;;;;6152503;23;20350;-69
2022/08/29 19:03:25;;;;;;;;;;;15.10;85.80;;;;;;6152534;23;20299;-68
2022/08/29 19:05:52;;;;;;;;;;;15.10;85.80;;;;;;6152928;23;20319;-68
2022/08/29 19:08:20;;;;;;;;;;;15.10;85.80;;;;;;6126764;23;19905;-69
2022/08/29 19:10:47;;;;;;;;;;;15.10;85.60;;;;;;6153270;23;19908;-68
2022/08/29 19:13:14;;;;;;;;;;;15.10;85.80;;;;;;6153249;23;19904;-69
2022/08/29 19:15:41;;;;;;;;;;;15.10;85.70;;;;;;6126710;23;19911;-68
2022/08/29 19:18:07;;;;;;;;;;;15.10;85.60;;;;;;6149497;23;20248;-68
2022/08/29 19:23:20;;;;;;;;;;;15.20;85.50;;;;;;6152695;23;19916;-69
2022/08/29 19:25:46;;;;;;;;;;;15.20;85.40;;;;;;6151511;23;19916;-68
2022/08/29 19:28:13;;;;;;;;;;;15.20;85.20;;;;;;6150640;23;20264;-69
2022/08/29 19:30:40;;;;;;;;;;;15.10;85.20;;;;;;6125935;23;19916;-68
2022/08/29 19:33:07;;;;;;;;;;;15.10;85.20;;;;;;6126475;23;19911;-68
2022/08/29 19:35:36;;;;;;;;;;;15.20;85.10;;;;;;6151972;23;19912;-68
2022/08/29 19:38:02;;;;;;;;;;;15.10;85.30;;;;;;6152884;23;20306;-69
2022/08/29 19:40:31;;;;;;;;;;;15.20;85.50;;;;;;6152961;23;19983;-69
2022/08/29 19:42:58;;;;;;;;;;;15.10;85.40;;;;;;6126711;23;19905;-68
2022/08/29 19:45:25;;;;;;;;;;;15.10;85.10;;;;;;6152874;23;19991;-68
2022/08/29 19:47:52;;;;;;;;;;;15.10;85.00;;;;;;6151136;23;19987;-67
2022/08/29 19:50:18;;;;;;;;;;;15.10;84.90;;;;;;6153176;23;20232;-69
2022/08/29 19:52:45;;;;;;;;;;;15.20;84.70;;;;;;6153249;23;19939;-68
2022/08/29 19:55:12;;;;;;;;;;;15.20;84.40;;;;;;6153239;23;19908;-68
2022/08/29 19:57:39;;;;;;;;;;;15.20;84.40;;;;;;6152966;23;19904;-68
2022/08/29 20:00:08;;;;;;;;;;;15.20;84.50;;;;;;6152974;23;19932;-68
2022/08/29 20:02:35;;;;;;;;;;;15.20;84.30;;;;;;6152038;23;19998;-68
2022/08/29 20:05:01;;;;;;;;;;;15.20;84.40;;;;;;6126355;23;19967;-68
2022/08/29 20:07:29;;;;;;;;;;;15.30;84.60;;;;;;6152715;23;19913;-68
2022/08/29 20:09:55;;;;;;;;;;;15.30;84.90;;;;;;6152354;23;19951;-68
2022/08/29 20:12:22;;;;;;;;;;;15.30;85.00;;;;;;6152807;23;20022;-68
2022/08/29 20:14:49;;;;;;;;;;;15.30;85.10;;;;;;6152506;23;19915;-68
2022/08/29 20:17:16;;;;;;;;;;;15.30;85.30;;;;;;6151206;23;20267;-68
2022/08/29 20:19:42;;;;;;;;;;;15.30;85.20;;;;;;6152782;23;19921;-68
2022/08/29 20:22:09;;;;;;;;;;;15.30;85.10;;;;;;6152296;23;19911;-68
2022/08/29 20:24:36;;;;;;;;;;;15.30;85.00;;;;;;6151563;23;19975;-68
2022/08/29 20:27:02;;;;;;;;;;;15.30;85.10;;;;;;6152995;23;19917;-68
2022/08/29 20:29:29;;;;;;;;;;;15.30;85.30;;;;;;6152627;23;19909;-68
2022/08/29 20:31:56;;;;;;;;;;;15.30;85.30;;;;;;6152574;23;19916;-68
2022/08/29 20:34:27;;;;;;;;;;;15.40;84.90;;;;;;6153340;23;19915;-68
2022/08/29 20:37:09;;;;;;;;;;;15.40;84.70;;;;;;6152370;23;20284;-68
2022/08/29 20:39:36;;;;;;;;;;;15.30;84.60;;;;;;6151852;23;19905;-68
2022/08/29 20:42:04;;;;;;;;;;;15.40;84.50;;;;;;6152993;23;19915;-69
2022/08/29 20:44:31;;;;;;;;;;;15.40;84.60;;;;;;6152468;23;20310;-69
2022/08/29 20:46:57;;;;;;;;;;;15.40;84.60;;;;;;6150182;23;19940;-69
2022/08/29 20:49:25;;;;;;;;;;;15.40;84.80;;;;;;6152303;23;20281;-69
2022/08/29 20:51:51;;;;;;;;;;;15.40;84.80;;;;;;6152209;23;19951;-69
2022/08/29 20:54:19;;;;;;;;;;;15.40;84.70;;;;;;6152692;23;19911;-69
2022/08/29 20:56:47;;;;;;;;;;;15.40;84.50;;;;;;6151707;23;19908;-69
2022/08/29 20:59:13;;;;;;;;;;;15.40;84.20;;;;;;6152041;23;19905;-69
2022/08/29 21:01:41;;;;;;;;;;;15.40;84.10;;;;;;6151892;23;19905;-69
2022/08/29 21:06:58;;;;;;;;;;;15.50;83.90;;;;;;6152192;23;20426;-69
2022/08/29 21:09:25;;;;;;;;;;;15.40;83.70;;;;;;6151990;23;19909;-69
2022/08/29 21:11:52;;;;;;;;;;;15.50;83.60;;;;;;6125771;23;19909;-69
2022/08/29 21:14:21;;;;;;;;;;;15.50;83.40;;;;;;6126555;23;19920;-68
2022/08/29 21:16:48;;;;;;;;;;;15.60;83.20;;;;;;6150514;23;20297;-68
2022/08/29 21:19:15;;;;;;;;;;;15.60;83.10;;;;;;6151456;23;19921;-69
2022/08/29 21:21:42;;;;;;;;;;;15.70;82.90;;;;;;6150125;23;19908;-68
2022/08/29 21:24:09;;;;;;;;;;;15.70;82.80;;;;;;6125927;23;19909;-68
2022/08/29 21:26:36;;;;;;;;;;;15.70;82.80;;;;;;6150785;23;19995;-68
2022/08/29 21:29:03;;;;;;;;;;;15.70;82.80;;;;;;6151474;23;19943;-68
2022/08/29 21:31:30;;;;;;;;;;;15.80;82.80;;;;;;6151536;23;19908;-68
2022/08/29 21:33:56;;;;;;;;;;;15.80;82.80;;;;;;6152032;23;20370;-68
2022/08/29 21:36:24;;;;;;;;;;;15.80;82.70;;;;;;6151837;23;19924;-69
2022/08/29 21:38:52;;;;;;;;;;;15.90;82.50;;;;;;6153603;23;20317;-69
2022/08/29 21:41:19;;;;;;;;;;;16.00;82.50;;;;;;6154647;23;19908;-69
2022/08/29 21:43:46;;;;;;;;;;;16.00;82.40;;;;;;6154669;23;20303;-68
2022/08/29 21:46:16;;;;;;;;;;;16.10;82.50;;;;;;6154110;23;19912;-69
2022/08/29 21:48:42;;;;;;;;;;;16.10;82.30;;;;;;6154470;23;19909;-68
2022/08/29 21:51:09;;;;;;;;;;;16.20;82.60;;;;;;6154272;23;19905;-69
2022/08/29 21:53:36;;;;;;;;;;;16.20;82.40;;;;;;6152638;23;20316;-69
2022/08/29 21:56:02;;;;;;;;;;;16.30;82.10;;;;;;6153857;23;19947;-68
2022/08/29 21:58:29;;;;;;;;;;;16.30;82.40;;;;;;6153889;23;19911;-68
2022/08/29 22:00:56;;;;;;;;;;;16.40;82.20;;;;;;6153771;23;20316;-69
2022/08/29 22:03:23;;;;;;;;;;;16.50;81.70;;;;;;6154570;23;19904;-69
2022/08/29 22:05:50;;;;;;;;;;;16.60;81.50;;;;;;6153931;23;19920;-69
2022/08/29 22:08:16;;;;;;;;;;;16.70;81.40;;;;;;6153844;23;20026;-69
2022/08/29 22:10:43;;;;;;;;;;;16.70;81.50;;;;;;6153901;23;19923;-69
2022/08/29 22:13:10;;;;;;;;;;;16.70;81.40;;;;;;6153815;23;19905;-69
2022/08/29 22:18:22;;;;;;;;;;;16.80;81.00;;;;;;6152240;23;19964;-69
2022/08/29 22:20:48;;;;;;;;;;;16.80;80.80;;;;;;6150995;23;19904;-69
2022/08/29 22:23:16;;;;;;;;;;;17.00;80.50;;;;;;6151919;23;19964;-69
2022/08/29 22:25:43;;;;;;;;;;;17.00;80.10;;;;;;6152823;23;19912;-69
2022/08/29 22:28:10;;;;;;;;;;;17.10;79.90;;;;;;6153938;23;19905;-68
2022/08/29 22:30:37;;;;;;;;;;;17.20;80.10;;;;;;6151357;23;19905;-69
2022/08/29 22:33:04;;;;;;;;;;;17.10;80.30;;;;;;6154919;23;20280;-68
2022/08/29 22:35:31;;;;;;;;;;;17.20;79.80;;;;;;6155269;23;19915;-69
2022/08/29 22:37:58;;;;;;;;;;;17.30;79.70;;;;;;6155255;23;19909;-68
2022/08/29 22:40:24;;;;;;;;;;;17.40;78.70;;;;;;6153172;23;20236;-68
2022/08/29 22:42:51;;;;;;;;;;;17.50;78.80;;;;;;6126817;23;19967;-68
2022/08/29 22:45:18;;;;;;;;;;;17.50;78.40;;;;;;6150120;23;19913;-68